Time;durP1;ratioP1;P1;durP2;ratioP2;P2;SDS_P1;SDS_P2;PMS_P1;PMS_P2;Temp;Humidity;BMP_temperature;BMP_pressure;BME280_temperature;BME280_humidity;BME280_pressure;Samples;Min_cycle;Max_cycle;Signal;HPM_P1;HPM_P2
2022/04/27 00:01:27;;;;;;;7.18;3.67;;;;;;;10.37;46.67;100482.91;5091074;28;20052;-60
2022/04/27 00:03:54;;;;;;;6.88;3.28;;;;;;;10.34;46.70;100490.06;5091109;28;20105;-62
2022/04/27 00:06:20;;;;;;;6.15;3.60;;;;;;;10.29;46.80;100485.84;5091514;28;20495;-61
2022/04/27 00:08:47;;;;;;;6.40;3.30;;;;;;;10.27;47.06;100486.84;5090837;28;20036;-60
2022/04/27 00:11:14;;;;;;;7.72;3.10;;;;;;;10.24;47.05;100482.56;5090861;28;20048;-60
2022/04/27 00:13:40;;;;;;;6.07;3.35;;;;;;;10.21;46.94;100482.69;5090945;28;20712;-61
2022/04/27 00:16:07;;;;;;;6.05;3.63;;;;;;;10.17;47.17;100478.53;5091345;28;20048;-61
2022/04/27 00:18:33;;;;;;;4.18;2.95;;;;;;;10.15;47.28;100482.97;5091072;28;20044;-60
2022/04/27 00:21:00;;;;;;;10.35;3.45;;;;;;;10.10;47.33;100483.16;5090732;28;20086;-58
2022/04/27 00:23:26;;;;;;;4.57;3.10;;;;;;;10.08;47.33;100476.25;5090930;28;20048;-65
2022/04/27 00:25:53;;;;;;;6.25;3.30;;;;;;;10.04;47.42;100488.69;5090962;28;20056;-60
2022/04/27 00:28:20;;;;;;;6.18;3.05;;;;;;;10.02;47.39;100483.50;5091312;28;20105;-60
2022/04/27 00:30:47;;;;;;;7.07;3.75;;;;;;;9.99;47.42;100485.41;5090842;28;20052;-61
2022/04/27 00:33:15;;;;;;;6.68;3.13;;;;;;;9.97;47.68;100482.00;5089726;28;20052;-60
2022/04/27 00:35:42;;;;;;;4.63;3.20;;;;;;;9.95;47.68;100486.47;5090492;28;20039;-60
2022/04/27 00:38:08;;;;;;;6.28;3.40;;;;;;;9.93;47.61;100481.28;5090848;28;20043;-60
2022/04/27 00:40:35;;;;;;;7.18;3.55;;;;;;;9.89;47.76;100477.94;5090481;28;20459;-61
2022/04/27 00:43:02;;;;;;;6.70;3.50;;;;;;;9.87;47.69;100486.81;5091019;28;20047;-59
2022/04/27 00:45:29;;;;;;;4.82;3.45;;;;;;;9.84;47.78;100485.16;5090746;28;20063;-62
2022/04/27 00:47:56;;;;;;;7.47;3.17;;;;;;;9.82;47.94;100492.25;5090700;28;20044;-59
2022/04/27 00:50:22;;;;;;;3.72;3.25;;;;;;;9.80;48.12;100493.22;5090457;28;20043;-60
2022/04/27 00:52:49;;;;;;;6.32;3.63;;;;;;;9.78;48.19;100503.81;5090188;28;20553;-60
2022/04/27 00:55:16;;;;;;;8.75;3.63;;;;;;;9.75;48.04;100499.53;5090401;28;20048;-61
2022/04/27 00:57:46;;;;;;;9.75;3.92;;;;;;;9.71;47.96;100492.69;5090511;28;20052;-60
2022/04/27 01:00:16;;;;;;;5.47;3.70;;;;;;;9.68;48.81;100505.97;5090058;28;20292;-59
2022/04/27 01:02:43;;;;;;;8.57;4.10;;;;;;;9.66;48.36;100497.28;5088961;28;20484;-59
2022/04/27 01:05:11;;;;;;;8.35;3.70;;;;;;;9.64;48.51;100504.38;5088879;28;20058;-61
2022/04/27 01:07:39;;;;;;;9.70;3.70;;;;;;;9.61;48.42;100502.72;5089908;28;20101;-59
2022/04/27 01:10:07;;;;;;;5.95;3.80;;;;;;;9.59;48.40;100504.56;5088878;28;20055;-61
2022/04/27 01:12:35;;;;;;;7.13;3.67;;;;;;;9.56;48.92;100502.06;5088911;28;20094;-61
2022/04/27 01:15:02;;;;;;;5.75;4.18;;;;;;;9.54;48.66;100501.28;5089073;28;20048;-60
2022/04/27 01:17:29;;;;;;;8.98;4.32;;;;;;;9.52;48.85;100501.34;5090133;28;20056;-60
2022/04/27 01:19:56;;;;;;;6.10;4.00;;;;;;;9.49;48.79;100496.22;5089825;28;20488;-60
2022/04/27 01:22:23;;;;;;;7.72;4.07;;;;;;;9.48;49.06;100499.75;5089823;28;20097;-59
2022/04/27 01:24:50;;;;;;;7.40;3.65;;;;;;;9.46;49.09;100498.13;5090191;28;20056;-64
2022/04/27 01:27:17;;;;;;;4.25;3.63;;;;;;;9.45;49.02;100505.13;5090083;28;20405;-60
2022/04/27 01:29:43;;;;;;;5.25;3.63;;;;;;;9.44;49.12;100503.44;5089676;28;20114;-60
2022/04/27 01:32:10;;;;;;;5.43;3.60;;;;;;;9.44;49.31;100507.81;5089958;28;20056;-61
2022/04/27 01:34:37;;;;;;;7.72;4.05;;;;;;;9.42;49.22;100505.25;5089745;28;20045;-59
2022/04/27 01:39:49;;;;;;;6.40;3.67;;;;;;;9.43;49.35;100506.13;5089882;28;20048;-59
2022/04/27 01:42:16;;;;;;;6.63;4.10;;;;;;;9.43;49.64;100506.97;5089952;28;20060;-61
2022/04/27 01:44:42;;;;;;;10.25;4.70;;;;;;;9.44;49.96;100513.94;5089608;28;20101;-62
2022/04/27 01:47:09;;;;;;;6.15;3.47;;;;;;;9.46;49.54;100513.88;5089848;28;20040;-60
2022/04/27 01:49:36;;;;;;;8.38;4.03;;;;;;;9.46;49.83;100513.88;5093525;28;20048;-60
2022/04/27 01:54:48;;;;;;;4.85;3.70;;;;;;;9.46;49.87;100522.59;5094046;28;20432;-61
2022/04/27 01:57:14;;;;;;;5.35;3.47;;;;;;;9.45;49.59;100520.91;5093752;28;20098;-59
2022/04/27 01:59:41;;;;;;;6.38;3.45;;;;;;;9.43;49.50;100520.13;5093271;28;20052;-60
2022/04/27 02:02:10;;;;;;;6.63;3.67;;;;;;;9.43;49.67;100521.88;5093588;28;20481;-60
2022/04/27 02:04:39;;;;;;;7.18;3.63;;;;;;;9.39;49.52;100522.00;5093506;28;20056;-62
2022/04/27 02:07:08;;;;;;;6.78;3.53;;;;;;;9.37;49.39;100529.09;5093459;28;20040;-59
2022/04/27 02:09:35;;;;;;;6.63;3.83;;;;;;;9.36;49.76;100531.78;5091619;28;20474;-61
2022/04/27 02:12:02;;;;;;;6.97;4.28;;;;;;;9.33;49.75;100531.88;5093272;28;20093;-62
2022/04/27 02:14:29;;;;;;;6.80;3.42;;;;;;;9.31;49.76;100539.00;5092011;28;20117;-59
2022/04/27 02:16:55;;;;;;;6.60;3.80;;;;;;;9.27;49.57;100537.41;5093334;28;20129;-61
2022/04/27 02:19:22;;;;;;;6.85;3.95;;;;;;;9.23;49.92;100532.25;5092935;28;20070;-60
2022/04/27 02:21:48;;;;;;;7.03;3.88;;;;;;;9.21;49.77;100543.75;5093127;28;20048;-62
2022/04/27 02:24:16;;;;;;;7.47;4.75;;;;;;;9.19;49.75;100550.84;5093178;28;20043;-62
2022/04/27 02:26:45;;;;;;;6.10;3.67;;;;;;;9.15;49.87;100552.72;5091642;28;20055;-59
2022/04/27 02:29:11;;;;;;;8.55;3.95;;;;;;;9.11;49.85;100557.22;5092742;28;20097;-61
2022/04/27 02:31:38;;;;;;;7.03;4.63;;;;;;;9.07;50.09;100554.75;5093138;28;20093;-59
2022/04/27 02:34:05;;;;;;;6.40;4.38;;;;;;;9.03;50.17;100558.41;5092690;28;20441;-60
2022/04/27 02:36:32;;;;;;;7.45;4.75;;;;;;;9.00;49.83;100559.41;5092660;28;20554;-59
2022/04/27 02:38:59;;;;;;;7.53;4.20;;;;;;;8.95;50.20;100558.72;5092682;28;20567;-60
2022/04/27 02:41:26;;;;;;;6.93;4.72;;;;;;;8.94;50.54;100557.00;5092918;28;20056;-61
2022/04/27 02:43:53;;;;;;;8.27;5.03;;;;;;;8.92;50.54;100558.81;5092839;28;20079;-59
2022/04/27 02:46:19;;;;;;;6.93;4.65;;;;;;;8.91;50.75;100562.38;5093157;28;20048;-61
2022/04/27 02:51:51;;;;;;;6.90;4.32;;;;;;;8.90;50.76;100569.38;5092945;28;20044;-58
2022/04/27 02:54:22;;;;;;;7.25;4.70;;;;;;;8.88;51.78;100567.72;5092572;28;20151;-59
2022/04/27 02:56:49;;;;;;;10.77;5.40;;;;;;;8.89;51.06;100570.28;5091293;28;20055;-60
2022/04/27 02:59:16;;;;;;;7.35;4.57;;;;;;;8.88;51.08;100565.97;5090725;28;20078;-60
2022/04/27 03:01:43;;;;;;;7.97;4.75;;;;;;;8.87;50.96;100566.88;5092488;28;20048;-60
2022/04/27 03:04:10;;;;;;;6.82;4.55;;;;;;;8.88;51.18;100565.09;5092034;28;20040;-59
2022/04/27 03:06:37;;;;;;;7.65;5.18;;;;;;;8.85;51.49;100561.69;5092016;28;20048;-60
2022/04/27 03:09:03;;;;;;;7.03;5.00;;;;;;;8.84;51.22;100567.00;5091989;28;20046;-60
2022/04/27 03:11:30;;;;;;;8.10;4.88;;;;;;;8.84;51.32;100572.25;5092233;28;20052;-59
2022/04/27 03:13:56;;;;;;;7.88;4.93;;;;;;;8.82;51.20;100577.53;5092009;28;20492;-62
2022/04/27 03:16:23;;;;;;;8.50;5.40;;;;;;;8.82;51.41;100568.84;5091971;28;20450;-58
2022/04/27 03:18:50;;;;;;;9.57;5.47;;;;;;;8.81;51.28;100577.59;5091793;28;20458;-58
2022/04/27 03:21:16;;;;;;;10.45;5.88;;;;;;;8.81;51.21;100572.34;5092024;28;20591;-63
2022/04/27 03:23:43;;;;;;;9.75;5.57;;;;;;;8.80;51.31;100570.63;5091868;28;20121;-59
2022/04/27 03:26:09;;;;;;;10.10;5.32;;;;;;;8.79;51.64;100579.44;5092266;28;20052;-59
2022/04/27 03:28:36;;;;;;;9.32;5.15;;;;;;;8.79;51.45;100579.44;5091815;28;20044;-60
2022/04/27 03:31:03;;;;;;;9.25;5.65;;;;;;;8.78;51.97;100577.72;5091440;28;20064;-63
2022/04/27 03:33:29;;;;;;;8.57;5.05;;;;;;;8.78;51.78;100578.56;5091568;28;20463;-59
2022/04/27 03:35:56;;;;;;;8.52;5.43;;;;;;;8.77;51.96;100582.09;5091782;28;20101;-60
2022/04/27 03:38:22;;;;;;;6.07;4.65;;;;;;;8.77;51.61;100583.88;5091815;28;20067;-60
2022/04/27 03:40:49;;;;;;;9.25;4.70;;;;;;;8.76;51.49;100585.66;5091381;28;20055;-61
2022/04/27 03:43:16;;;;;;;10.60;4.95;;;;;;;8.73;51.49;100585.75;5091469;28;20455;-59
2022/04/27 03:45:42;;;;;;;9.27;4.95;;;;;;;8.71;51.75;100591.06;5091401;28;20557;-59
2022/04/27 03:48:09;;;;;;;8.77;5.05;;;;;;;8.70;51.69;100591.97;5091158;28;20135;-60
2022/04/27 03:50:35;;;;;;;6.95;4.97;;;;;;;8.69;51.89;100597.28;5091215;28;20454;-60
2022/04/27 03:53:02;;;;;;;10.43;5.82;;;;;;;8.68;52.02;100590.31;5091097;28;20430;-60
2022/04/27 03:55:33;;;;;;;10.10;5.78;;;;;;;8.66;51.98;100598.25;5091301;28;20056;-61
2022/04/27 03:58:04;;;;;;;7.38;5.35;;;;;;;8.65;52.73;100598.28;5089722;28;20044;-59
2022/04/27 04:00:32;;;;;;;7.45;5.30;;;;;;;8.64;52.10;100602.72;5105786;27;20039;-60
2022/04/27 04:03:00;;;;;;;8.80;5.45;;;;;;;8.64;51.91;100601.84;5121870;27;20564;-58
2022/04/27 04:05:28;;;;;;;11.65;5.30;;;;;;;8.63;51.77;100600.13;5130573;27;20055;-60
2022/04/27 04:07:55;;;;;;;10.48;5.70;;;;;;;8.62;51.98;100603.63;5131961;27;20067;-58
2022/04/27 04:10:21;;;;;;;6.95;4.90;;;;;;;8.61;52.09;100608.06;5131024;27;20064;-60
2022/04/27 04:12:48;;;;;;;8.00;5.32;;;;;;;8.60;52.33;100604.56;5131941;27;20039;-61
2022/04/27 04:15:15;;;;;;;8.50;5.70;;;;;;;8.59;52.34;100607.22;5131838;27;20571;-59
2022/04/27 04:17:45;;;;;;;13.57;5.75;;;;;;;8.58;52.08;100603.78;5131949;27;20062;-62
2022/04/27 04:20:14;;;;;;;9.48;5.10;;;;;;;8.57;52.14;100615.16;5131605;27;20055;-61
2022/04/27 04:22:41;;;;;;;7.97;5.30;;;;;;;8.57;52.01;100620.41;5131658;27;20495;-62
2022/04/27 04:30:39;;;;;;;11.77;5.07;;;;;;;8.53;52.23;100625.84;5131446;27;20096;-59
2022/04/27 04:33:06;;;;;;;7.68;5.60;;;;;;;8.51;52.31;100623.22;5131474;27;20453;-62
2022/04/27 04:35:34;;;;;;;8.52;5.50;;;;;;;8.50;52.72;100625.91;5131548;27;20415;-60
2022/04/27 04:38:01;;;;;;;10.45;5.75;;;;;;;8.49;52.85;100627.69;5131353;27;20096;-61
2022/04/27 04:40:27;;;;;;;10.65;5.68;;;;;;;8.50;52.63;100634.63;5131426;27;20051;-59
2022/04/27 04:42:54;;;;;;;8.30;5.20;;;;;;;8.51;52.95;100632.84;5131734;27;20055;-60
2022/04/27 04:45:21;;;;;;;8.82;5.28;;;;;;;8.53;52.81;100644.19;5131392;27;20104;-61
2022/04/27 04:47:47;;;;;;;8.10;5.70;;;;;;;8.53;52.87;100639.81;5131604;27;20051;-59
2022/04/27 04:50:20;;;;;;;10.70;5.32;;;;;;;8.57;52.72;100651.06;5131043;27;20437;-60
2022/04/27 04:52:46;;;;;;;9.60;5.30;;;;;;;8.58;52.93;100650.13;5130943;27;20544;-62
2022/04/27 04:55:13;;;;;;;10.20;5.32;;;;;;;8.60;52.92;100653.59;5131146;27;20088;-60
2022/04/27 04:57:40;;;;;;;7.38;5.10;;;;;;;8.62;52.81;100657.00;5131272;27;20047;-61
2022/04/27 05:00:09;;;;;;;8.18;5.82;;;;;;;8.63;53.24;100655.25;5130997;27;20111;-59
2022/04/27 05:02:36;;;;;;;8.60;6.00;;;;;;;8.67;53.38;100664.72;5130965;27;20128;-60
2022/04/27 05:05:04;;;;;;;12.95;6.45;;;;;;;8.67;53.21;100665.56;5130852;27;20051;-60
2022/04/27 05:07:32;;;;;;;15.18;7.43;;;;;;;8.70;53.24;100669.84;5129843;27;20039;-61
2022/04/27 05:09:59;;;;;;;10.88;6.03;;;;;;;8.71;53.49;100661.09;5130990;27;20054;-60
2022/04/27 05:12:25;;;;;;;15.80;8.07;;;;;;;8.75;53.51;100677.59;5130849;27;20047;-60
2022/04/27 05:14:53;;;;;;;17.42;8.15;;;;;;;8.77;53.51;100676.63;5130910;28;20491;-60
2022/04/27 05:17:20;;;;;;;13.48;8.45;;;;;;;8.80;53.50;100675.66;5129591;28;20055;-60
2022/04/27 05:19:49;;;;;;;15.85;8.88;;;;;;;8.82;53.61;100679.94;5130553;27;20047;-59
2022/04/27 05:22:16;;;;;;;16.00;9.07;;;;;;;8.86;53.72;100696.47;5133109;27;20043;-61
2022/04/27 05:24:42;;;;;;;13.23;8.07;;;;;;;8.89;54.02;100690.25;5134952;27;20047;-59
2022/04/27 05:27:09;;;;;;;11.65;8.18;;;;;;;8.92;53.89;100696.22;5134743;27;20096;-60
2022/04/27 05:32:21;;;;;;;13.73;7.60;;;;;;;8.99;54.13;100700.38;5134466;27;20051;-59
2022/04/27 05:34:47;;;;;;;10.63;5.93;;;;;;;9.03;54.10;100701.09;5134685;27;20059;-61
2022/04/27 05:37:14;;;;;;;5.65;4.47;;;;;;;9.08;53.80;100712.31;5134575;27;20108;-59
2022/04/27 05:39:40;;;;;;;7.65;4.95;;;;;;;9.12;54.01;100713.03;5134158;27;20080;-59
2022/04/27 05:42:08;;;;;;;6.40;4.55;;;;;;;9.14;54.10;100711.22;5134751;27;20411;-60
2022/04/27 05:44:34;;;;;;;7.40;4.82;;;;;;;9.17;53.67;100708.50;5134816;27;20119;-58
2022/04/27 05:47:02;;;;;;;8.93;5.78;;;;;;;9.21;54.00;100710.09;5134832;27;20055;-61
2022/04/27 05:49:30;;;;;;;9.05;5.10;;;;;;;9.23;54.06;100710.91;5132756;27;20047;-60
2022/04/27 05:51:56;;;;;;;9.10;4.95;;;;;;;9.28;53.91;100716.00;5134132;27;20039;-60
2022/04/27 05:54:23;;;;;;;8.75;4.90;;;;;;;9.31;54.09;100715.88;5134381;27;20119;-59
2022/04/27 05:56:49;;;;;;;7.55;4.60;;;;;;;9.36;54.02;100718.34;5134309;27;20039;-59
2022/04/27 05:59:17;;;;;;;8.73;4.82;;;;;;;9.40;54.10;100722.56;5134120;27;20047;-61
2022/04/27 06:01:45;;;;;;;8.95;4.57;;;;;;;9.44;54.35;100723.31;5133141;27;20491;-59
2022/04/27 06:04:16;;;;;;;7.75;3.53;;;;;;;9.48;54.35;100724.91;5134496;27;20081;-60
2022/04/27 06:06:42;;;;;;;7.95;4.20;;;;;;;9.51;54.37;100725.66;5134039;27;20045;-59
2022/04/27 06:09:09;;;;;;;7.75;3.50;;;;;;;9.57;54.18;100718.47;5133957;27;20051;-59
2022/04/27 06:11:35;;;;;;;9.23;3.63;;;;;;;9.61;54.38;100725.31;5133948;27;20051;-59
2022/04/27 06:14:02;;;;;;;5.85;3.25;;;;;;;9.64;54.58;100725.19;5106601;27;20044;-59
2022/04/27 06:16:32;;;;;;;6.82;3.60;;;;;;;9.69;54.53;100725.91;5101618;28;20083;-62
2022/04/27 06:18:59;;;;;;;6.32;3.58;;;;;;;9.75;54.30;100737.94;5093216;28;20148;-59
2022/04/27 06:21:30;;;;;;;7.85;3.60;;;;;;;9.80;54.44;100737.78;5092817;28;20094;-60
2022/04/27 06:24:00;;;;;;;9.48;3.17;;;;;;;9.85;54.45;100738.44;5092882;28;20101;-59
2022/04/27 06:26:27;;;;;;;4.32;2.92;;;;;;;9.91;54.84;100740.84;5092909;28;20050;-59
2022/04/27 06:28:53;;;;;;;8.00;3.08;;;;;;;9.95;54.37;100745.09;5092802;28;20534;-60
2022/04/27 06:31:20;;;;;;;10.05;3.10;;;;;;;10.01;54.33;100744.84;5092687;28;20097;-60
2022/04/27 06:33:47;;;;;;;5.43;2.97;;;;;;;10.06;54.36;100741.16;5092006;28;20424;-61
2022/04/27 06:36:13;;;;;;;7.57;3.05;;;;;;;10.11;54.32;100744.47;5092964;28;20537;-60
2022/04/27 06:38:40;;;;;;;10.35;3.15;;;;;;;10.16;54.09;100746.00;5092696;28;20569;-61
2022/04/27 06:41:13;;;;;;;6.07;2.90;;;;;;;10.22;54.07;100744.91;5092691;28;20058;-61
2022/04/27 06:43:40;;;;;;;9.70;3.55;;;;;;;10.26;53.98;100746.50;5092506;28;20048;-59
2022/04/27 06:46:06;;;;;;;6.28;3.10;;;;;;;10.32;54.10;100749.81;5092771;28;20097;-60
2022/04/27 06:48:33;;;;;;;5.05;2.53;;;;;;;10.35;53.74;100745.28;5092416;28;20516;-60
2022/04/27 06:50:59;;;;;;;6.40;2.88;;;;;;;10.40;53.73;100750.38;5092001;28;20542;-60
2022/04/27 06:53:26;;;;;;;8.25;2.75;;;;;;;10.46;53.61;100754.56;5092220;28;20105;-60
2022/04/27 06:55:52;;;;;;;6.90;2.85;;;;;;;10.51;53.33;100763.97;5092165;28;20407;-61
2022/04/27 06:58:19;;;;;;;5.78;2.47;;;;;;;10.57;53.09;100764.66;5092299;28;20133;-59
2022/04/27 07:00:46;;;;;;;8.90;2.60;;;;;;;10.61;53.06;100763.63;5092175;28;20177;-60
2022/04/27 07:03:18;;;;;;;4.53;2.50;;;;;;;10.65;53.04;100767.84;5092404;28;20093;-59
2022/04/27 07:05:45;;;;;;;5.57;2.22;;;;;;;10.71;52.70;100766.69;5092524;28;20059;-62
2022/04/27 07:08:11;;;;;;;5.53;2.05;;;;;;;10.74;52.37;100780.63;5092076;28;20382;-61
2022/04/27 07:10:38;;;;;;;4.15;1.90;;;;;;;10.79;52.19;100780.41;5091824;28;20102;-60
2022/04/27 07:13:05;;;;;;;6.20;2.20;;;;;;;10.82;52.07;100775.03;5092361;28;20065;-59
2022/04/27 07:15:32;;;;;;;3.35;2.20;;;;;;;10.86;51.92;100784.50;5092205;28;20063;-59
2022/04/27 07:17:59;;;;;;;6.25;2.80;;;;;;;10.90;52.12;100785.22;5090843;28;20048;-59
2022/04/27 07:20:26;;;;;;;5.32;1.80;;;;;;;10.94;51.76;100784.19;5091757;28;20056;-59
2022/04/27 07:22:52;;;;;;;7.63;2.65;;;;;;;10.98;51.88;100783.13;5091795;28;20048;-60
2022/04/27 07:25:19;;;;;;;6.60;2.72;;;;;;;11.01;51.88;100777.75;5092160;28;20051;-59
2022/04/27 07:27:45;;;;;;;6.40;2.70;;;;;;;11.06;51.72;100781.03;5091513;28;20101;-61
2022/04/27 07:30:13;;;;;;;5.63;2.90;;;;;;;11.10;51.48;100787.00;5091436;28;20152;-60
2022/04/27 07:32:40;;;;;;;5.55;2.70;;;;;;;11.14;51.45;100787.75;5094767;22;20506;-84
2022/04/27 07:37:47;;;;;;;4.03;2.90;;;;;;;11.21;50.92;100790.06;4998262;23;20051;-58
2022/04/27 07:40:14;;;;;;;4.78;2.45;;;;;;;11.25;51.06;100793.41;4992490;28;20058;-54
2022/04/27 07:42:41;;;;;;;6.80;3.05;;;;;;;11.29;51.09;100787.09;4992742;28;20050;-54
2022/04/27 07:45:08;;;;;;;5.88;2.95;;;;;;;11.32;51.10;100786.97;4991365;28;20116;-52
2022/04/27 07:47:53;;;;;;;4.57;2.47;;;;;;;11.34;51.22;100793.00;4992560;28;20568;-58
2022/04/27 07:50:20;;;;;;;4.40;1.92;;;;;;;11.45;50.59;100800.44;4992296;28;20073;-59
2022/04/27 07:52:46;;;;;;;5.35;2.20;;;;;;;11.51;50.51;100799.31;4992414;28;20057;-54
2022/04/27 07:55:13;;;;;;;5.03;2.35;;;;;;;11.57;50.43;100801.72;4992189;28;20046;-56
2022/04/27 07:57:40;;;;;;;8.30;3.00;;;;;;;11.63;50.42;100797.94;4992340;28;20050;-56
2022/04/27 08:00:09;;;;;;;5.70;2.97;;;;;;;11.69;50.59;100809.97;4989979;28;20046;-55
2022/04/27 08:02:36;;;;;;;5.95;3.20;;;;;;;11.78;50.58;100803.44;4991278;28;20061;-57
2022/04/27 08:05:04;;;;;;;6.40;3.33;;;;;;;11.86;50.34;100809.22;4991412;28;20054;-59
2022/04/27 08:07:39;;;;;;;7.43;3.83;;;;;;;11.93;50.15;100808.00;4974775;28;20117;-59
2022/04/27 08:10:10;;;;;;;6.22;3.50;;;;;;;12.05;49.86;100808.38;4991778;28;20514;-58
2022/04/27 08:12:39;;;;;;;5.63;3.28;;;;;;;12.17;50.40;100814.91;4991968;28;20117;-55
2022/04/27 08:15:07;;;;;;;6.55;3.45;;;;;;;12.26;50.13;100814.47;4991881;28;20058;-57
2022/04/27 08:17:34;;;;;;;8.23;3.88;;;;;;;12.34;49.96;100820.25;4990874;28;20113;-57
2022/04/27 08:22:46;;;;;;;4.18;2.90;;;;;;;12.50;49.32;100828.31;4991996;28;20058;-58
2022/04/27 08:25:13;;;;;;;7.90;3.67;;;;;;;12.55;49.16;100833.34;4991439;28;20046;-58
2022/04/27 08:27:39;;;;;;;8.75;4.15;;;;;;;12.60;48.51;100827.88;4992320;28;20065;-58
2022/04/27 08:30:06;;;;;;;6.07;3.92;;;;;;;12.61;48.34;100838.34;4990945;28;20050;-54
2022/04/27 08:32:33;;;;;;;5.22;3.20;;;;;;;12.62;48.31;100841.84;4990311;28;20621;-55
2022/04/27 08:35:00;;;;;;;8.75;3.35;;;;;;;12.64;48.35;100845.28;4990269;28;20497;-55
2022/04/27 08:37:26;;;;;;;5.47;3.50;;;;;;;12.68;49.00;100840.69;4991825;28;20124;-56
2022/04/27 08:39:54;;;;;;;5.32;3.60;;;;;;;12.74;49.54;100845.66;4991258;28;20390;-57
2022/04/27 08:42:20;;;;;;;6.25;3.17;;;;;;;12.86;49.75;100839.78;4991041;28;20559;-60
2022/04/27 08:44:47;;;;;;;4.68;3.10;;;;;;;13.00;49.36;100836.47;4991605;28;20061;-59
2022/04/27 08:47:13;;;;;;;8.82;3.45;;;;;;;13.15;49.24;100839.25;4991043;28;20546;-62
2022/04/27 08:49:40;;;;;;;7.25;3.33;;;;;;;13.28;48.97;100842.16;4991249;28;20490;-58
2022/04/27 08:52:11;;;;;;;6.22;3.22;;;;;;;13.37;48.19;100851.38;4990841;28;20553;-60
2022/04/27 08:54:38;;;;;;;5.18;3.08;;;;;;;13.45;47.68;100851.84;4991637;28;20058;-60
2022/04/27 08:57:05;;;;;;;9.23;3.22;;;;;;;13.50;47.08;100841.91;4990391;28;20054;-58
2022/04/27 08:59:32;;;;;;;10.30;3.60;;;;;;;13.53;47.24;100840.94;4989827;28;20050;-60
2022/04/27 09:02:22;;;;;;;5.95;2.85;;;;;;;13.55;47.15;100846.97;4990733;28;20057;-59
2022/04/27 09:05:09;;;;;;;6.15;3.45;;;;;;;13.64;47.07;100848.31;4991104;28;20116;-60
2022/04/27 09:07:46;;;;;;;8.38;3.25;;;;;;;13.80;47.45;100848.34;4989815;28;20046;-60
2022/04/27 09:10:15;;;;;;;12.27;3.45;;;;;;;13.94;47.78;100847.59;4989835;28;20054;-60
2022/04/27 09:12:51;;;;;;;5.28;2.90;;;;;;;14.06;46.63;100846.09;4990731;28;20156;-60
2022/04/27 09:15:20;;;;;;;9.98;3.70;;;;;;;14.22;47.28;100846.09;4991421;28;20054;-60
2022/04/27 09:20:47;;;;;;;;;;;;;;;14.52;47.54;100844.47;4991383;28;20061;-58
2022/04/27 09:23:21;;;;;;;4.53;2.75;;;;;;;14.66;46.49;100839.25;4990691;28;19957;-60
2022/04/27 09:25:51;;;;;;;3.45;2.70;;;;;;;14.79;46.78;100841.22;4990955;28;20050;-60
2022/04/27 09:28:33;;;;;;;7.53;3.13;;;;;;;14.93;46.71;100841.31;4990810;28;20137;-61
2022/04/27 09:31:00;;;;;;;6.25;3.25;;;;;;;15.08;46.80;100850.16;4990900;28;20054;-59
2022/04/27 09:33:31;;;;;;;7.22;2.78;;;;;;;15.24;45.72;100847.44;4990438;28;20093;-60
2022/04/27 09:35:57;;;;;;;4.57;2.70;;;;;;;15.42;46.18;100843.78;4989422;28;20050;-60
2022/04/27 09:38:25;;;;;;;6.40;2.83;;;;;;;15.58;45.48;100838.38;4990522;28;20556;-60
2022/04/27 09:40:56;;;;;;;4.57;2.67;;;;;;;15.71;45.09;100841.16;4990878;28;20101;-60
2022/04/27 09:43:51;;;;;;;8.57;3.17;;;;;;;15.81;44.42;100844.94;4989185;28;20449;-62
2022/04/27 09:46:22;;;;;;;4.80;2.72;;;;;;;15.97;43.70;100842.25;4990892;28;20042;-60
2022/04/27 09:49:01;;;;;;;4.63;2.97;;;;;;;16.04;43.27;100841.84;4989435;28;20046;-61
2022/04/27 09:51:52;;;;;;;6.47;3.10;;;;;;;16.15;44.41;100836.72;4990927;28;20132;-60
2022/04/27 09:54:22;;;;;;;4.90;3.20;;;;;;;16.21;44.57;100836.31;4990479;28;20055;-60
2022/04/27 09:56:56;;;;;;;4.57;3.00;;;;;;;16.26;43.73;100841.34;4990564;28;20073;-60
2022/04/27 09:59:27;;;;;;;5.10;2.70;;;;;;;16.32;43.93;100840.09;4988921;28;20105;-61
2022/04/27 10:01:56;;;;;;;5.05;3.38;;;;;;;16.37;43.82;100838.00;4987039;28;20060;-60
2022/04/27 10:04:25;;;;;;;9.98;3.42;;;;;;;16.39;44.14;100836.09;4988863;28;20054;-58
2022/04/27 10:06:53;;;;;;;4.30;3.00;;;;;;;16.48;43.87;100846.13;4989305;28;20121;-61
2022/04/27 10:09:19;;;;;;;6.50;2.78;;;;;;;16.54;43.34;100843.09;4991921;28;20050;-60
2022/04/27 10:12:11;;;;;;;7.80;3.28;;;;;;;16.63;42.52;100848.75;4993994;28;20046;-59
2022/04/27 10:14:37;;;;;;;5.50;2.80;;;;;;;16.68;42.31;100841.34;4993820;28;20090;-62
2022/04/27 10:17:05;;;;;;;6.50;3.08;;;;;;;16.71;42.13;100848.25;4994186;28;20050;-60
2022/04/27 10:19:32;;;;;;;5.75;2.90;;;;;;;16.74;42.45;100845.41;4993471;28;20046;-59
2022/04/27 10:22:01;;;;;;;6.47;3.13;;;;;;;16.77;42.47;100842.53;4993838;28;20054;-60
2022/04/27 10:24:49;;;;;;;4.00;2.53;;;;;;;16.75;42.89;100831.16;4993727;28;20124;-60
2022/04/27 10:27:34;;;;;;;5.93;2.80;;;;;;;16.83;43.25;100841.28;4993920;28;20046;-56
2022/04/27 10:30:02;;;;;;;4.25;2.50;;;;;;;16.93;42.77;100834.38;4993057;28;20054;-60
2022/04/27 10:32:46;;;;;;;6.88;2.88;;;;;;;17.00;43.28;100838.34;4993774;28;20133;-58
2022/04/27 10:35:14;;;;;;;5.60;2.78;;;;;;;17.14;42.90;100837.44;4992158;28;20053;-56
2022/04/27 10:38:05;;;;;;;5.13;2.90;;;;;;;17.25;42.41;100833.19;4992282;28;20050;-59
2022/04/27 10:40:41;;;;;;;6.20;2.63;;;;;;;17.41;41.28;100838.31;4992955;28;20050;-61
2022/04/27 10:43:07;;;;;;;5.30;2.70;;;;;;;17.58;42.22;100834.50;4993668;28;20105;-54
2022/04/27 10:45:37;;;;;;;4.60;3.13;;;;;;;17.70;41.90;100833.66;4993161;28;20089;-59
2022/04/27 10:48:33;;;;;;;5.90;3.65;;;;;;;17.86;41.82;100837.03;4993453;28;20054;-60
2022/04/27 10:51:03;;;;;;;8.95;3.08;;;;;;;18.09;42.08;100833.63;4962661;28;20062;-60
2022/04/27 10:53:42;;;;;;;7.45;2.80;;;;;;;18.33;43.12;100832.81;4993263;28;20058;-60
2022/04/27 10:56:29;;;;;;;6.90;3.25;;;;;;;18.75;43.32;100823.56;4992159;28;20869;-60
2022/04/27 10:58:56;;;;;;;7.32;3.08;;;;;;;19.22;43.26;100825.47;4993301;28;20081;-60
2022/04/27 11:01:24;;;;;;;4.88;3.13;;;;;;;19.78;43.09;100826.50;4992579;28;20062;-61
2022/04/27 11:03:54;;;;;;;7.35;2.80;;;;;;;20.46;40.94;100835.41;4992073;28;20050;-62
2022/04/27 11:06:22;;;;;;;7.07;2.47;;;;;;;21.13;40.84;100828.13;4992878;28;20050;-58
2022/04/27 11:08:58;;;;;;;7.85;2.83;;;;;;;21.79;39.53;100822.59;4993129;28;20058;-61
2022/04/27 11:11:27;;;;;;;6.07;2.22;;;;;;;22.41;39.16;100827.84;4992460;28;20046;-57
2022/04/27 11:14:06;;;;;;;5.22;2.20;;;;;;;22.95;36.43;100827.44;4991651;28;20050;-62
2022/04/27 11:16:49;;;;;;;5.95;2.20;;;;;;;23.47;37.18;100828.94;4992741;28;20046;-61
2022/04/27 11:19:16;;;;;;;;;;;;;;;23.94;39.33;100824.50;4992945;28;20054;-58
2022/04/27 11:21:43;;;;;;;4.47;2.10;;;;;;;24.50;36.49;100824.47;4992514;28;19921;-58
2022/04/27 11:24:14;;;;;;;4.00;2.38;;;;;;;24.92;35.56;100828.41;4992620;28;20085;-58
2022/04/27 11:26:45;;;;;;;4.25;2.30;;;;;;;25.30;33.30;100828.19;4992656;28;20054;-57
2022/04/27 11:29:14;;;;;;;3.80;2.17;;;;;;;25.68;34.13;100824.38;4992656;28;20050;-58
2022/04/27 11:31:44;;;;;;;4.50;2.35;;;;;;;25.99;33.52;100823.84;4992161;28;20081;-57
2022/04/27 11:34:27;;;;;;;4.60;2.25;;;;;;;26.23;32.79;100819.50;4991377;28;20097;-58
2022/04/27 11:37:18;;;;;;;4.45;2.03;;;;;;;26.54;32.49;100816.25;4992200;28;20054;-58
2022/04/27 11:39:46;;;;;;;2.67;1.85;;;;;;;26.87;32.69;100810.00;4992495;28;20054;-58
2022/04/27 11:42:16;;;;;;;4.88;1.98;;;;;;;27.14;32.02;100822.31;4991962;28;20053;-58
2022/04/27 11:44:51;;;;;;;4.88;2.22;;;;;;;27.36;30.28;100814.50;4992433;28;20379;-59
2022/04/27 11:47:25;;;;;;;4.88;1.75;;;;;;;27.60;29.88;100810.06;4992037;28;20050;-58
2022/04/27 11:49:54;;;;;;;4.90;1.70;;;;;;;27.84;30.34;100814.56;4992223;28;20061;-59
2022/04/27 11:52:21;;;;;;;5.72;2.28;;;;;;;28.04;29.52;100806.03;4991690;28;20395;-59
2022/04/27 11:54:48;;;;;;;4.85;1.88;;;;;;;28.21;28.82;100814.88;4992325;28;20050;-58
2022/04/27 11:57:24;;;;;;;3.33;1.80;;;;;;;28.34;28.35;100805.34;4991698;28;20109;-59
2022/04/27 11:59:52;;;;;;;2.67;1.88;;;;;;;28.53;27.87;100814.00;4991762;28;20109;-58
2022/04/27 12:02:23;;;;;;;5.05;2.00;;;;;;;28.63;27.79;100808.38;4991824;28;20038;-60